sensor_id;sensor_type;location;lat;lon;timestamp;P1;durP1;ratioP1;P2;durP2;ratioP2
47960;SDS011;33721;48.852;9.936;2022-11-15T00:00:25;8.23;;;4.30;;
47960;SDS011;33721;48.852;9.936;2022-11-15T00:02:54;8.05;;;3.80;;
47960;SDS011;33721;48.852;9.936;2022-11-15T00:05:20;9.95;;;4.65;;
47960;SDS011;33721;48.852;9.936;2022-11-15T00:07:46;10.77;;;5.00;;
47960;SDS011;33721;48.852;9.936;2022-11-15T00:10:12;13.43;;;5.93;;
47960;SDS011;33721;48.852;9.936;2022-11-15T00:12:37;10.38;;;5.43;;
47960;SDS011;33721;48.852;9.936;2022-11-15T00:15:03;10.57;;;5.38;;
47960;SDS011;33721;48.852;9.936;2022-11-15T00:17:29;11.68;;;6.15;;
47960;SDS011;33721;48.852;9.936;2022-11-15T00:19:55;9.90;;;5.43;;
47960;SDS011;33721;48.852;9.936;2022-11-15T00:22:21;13.15;;;5.20;;
47960;SDS011;33721;48.852;9.936;2022-11-15T00:24:47;9.68;;;5.45;;
47960;SDS011;33721;48.852;9.936;2022-11-15T00:27:12;9.45;;;5.32;;
47960;SDS011;33721;48.852;9.936;2022-11-15T00:29:38;11.05;;;5.57;;
47960;SDS011;33721;48.852;9.936;2022-11-15T00:32:08;10.40;;;5.80;;
47960;SDS011;33721;48.852;9.936;2022-11-15T00:34:35;13.13;;;5.90;;
47960;SDS011;33721;48.852;9.936;2022-11-15T00:37:00;13.85;;;6.00;;
47960;SDS011;33721;48.852;9.936;2022-11-15T00:39:26;12.75;;;6.72;;
47960;SDS011;33721;48.852;9.936;2022-11-15T00:41:52;13.90;;;6.70;;
47960;SDS011;33721;48.852;9.936;2022-11-15T00:44:17;10.65;;;6.40;;
47960;SDS011;33721;48.852;9.936;2022-11-15T00:46:43;12.65;;;6.78;;
47960;SDS011;33721;48.852;9.936;2022-11-15T00:49:08;14.95;;;7.18;;
47960;SDS011;33721;48.852;9.936;2022-11-15T00:51:34;15.20;;;6.75;;
47960;SDS011;33721;48.852;9.936;2022-11-15T00:54:00;12.38;;;6.03;;
47960;SDS011;33721;48.852;9.936;2022-11-15T00:56:25;10.65;;;5.38;;
47960;SDS011;33721;48.852;9.936;2022-11-15T00:58:52;13.02;;;5.72;;
47960;SDS011;33721;48.852;9.936;2022-11-15T01:01:18;13.32;;;6.38;;
47960;SDS011;33721;48.852;9.936;2022-11-15T01:03:43;11.07;;;6.18;;
47960;SDS011;33721;48.852;9.936;2022-11-15T01:06:09;12.00;;;6.68;;
47960;SDS011;33721;48.852;9.936;2022-11-15T01:08:35;14.63;;;7.63;;
47960;SDS011;33721;48.852;9.936;2022-11-15T01:11:05;11.90;;;6.95;;
47960;SDS011;33721;48.852;9.936;2022-11-15T01:13:33;13.18;;;6.72;;
47960;SDS011;33721;48.852;9.936;2022-11-15T01:16:05;15.15;;;6.72;;
47960;SDS011;33721;48.852;9.936;2022-11-15T01:18:36;12.90;;;6.75;;
47960;SDS011;33721;48.852;9.936;2022-11-15T01:21:06;12.57;;;6.43;;
47960;SDS011;33721;48.852;9.936;2022-11-15T01:23:33;11.80;;;6.20;;
47960;SDS011;33721;48.852;9.936;2022-11-15T01:26:00;12.07;;;7.07;;
47960;SDS011;33721;48.852;9.936;2022-11-15T01:28:29;12.20;;;6.30;;
47960;SDS011;33721;48.852;9.936;2022-11-15T01:30:59;14.68;;;7.00;;
47960;SDS011;33721;48.852;9.936;2022-11-15T01:33:27;18.23;;;7.75;;
47960;SDS011;33721;48.852;9.936;2022-11-15T01:35:53;17.40;;;7.22;;
47960;SDS011;33721;48.852;9.936;2022-11-15T01:38:19;18.00;;;8.40;;
47960;SDS011;33721;48.852;9.936;2022-11-15T01:40:45;15.07;;;8.02;;
47960;SDS011;33721;48.852;9.936;2022-11-15T01:43:25;12.80;;;7.22;;
47960;SDS011;33721;48.852;9.936;2022-11-15T01:48:52;12.48;;;6.75;;
47960;SDS011;33721;48.852;9.936;2022-11-15T01:51:21;16.48;;;7.72;;
47960;SDS011;33721;48.852;9.936;2022-11-15T01:53:51;14.13;;;6.65;;
47960;SDS011;33721;48.852;9.936;2022-11-15T01:56:21;12.70;;;6.75;;
47960;SDS011;33721;48.852;9.936;2022-11-15T01:58:50;19.42;;;6.70;;
47960;SDS011;33721;48.852;9.936;2022-11-15T02:01:17;13.35;;;6.57;;
47960;SDS011;33721;48.852;9.936;2022-11-15T02:06:48;14.60;;;6.82;;
47960;SDS011;33721;48.852;9.936;2022-11-15T02:09:14;12.98;;;7.38;;
47960;SDS011;33721;48.852;9.936;2022-11-15T02:11:41;12.32;;;6.65;;
47960;SDS011;33721;48.852;9.936;2022-11-15T02:14:08;22.30;;;8.23;;
47960;SDS011;33721;48.852;9.936;2022-11-15T02:27:45;20.80;;;8.40;;
47960;SDS011;33721;48.852;9.936;2022-11-15T02:30:50;16.45;;;8.00;;
47960;SDS011;33721;48.852;9.936;2022-11-15T02:36:09;16.55;;;7.35;;
47960;SDS011;33721;48.852;9.936;2022-11-15T02:41:40;16.17;;;7.80;;
47960;SDS011;33721;48.852;9.936;2022-11-15T02:44:26;10.23;;;5.93;;
47960;SDS011;33721;48.852;9.936;2022-11-15T02:47:03;15.15;;;7.20;;
47960;SDS011;33721;48.852;9.936;2022-11-15T02:49:39;14.50;;;7.20;;
47960;SDS011;33721;48.852;9.936;2022-11-15T02:52:14;13.68;;;7.20;;
47960;SDS011;33721;48.852;9.936;2022-11-15T02:54:54;13.05;;;6.80;;
47960;SDS011;33721;48.852;9.936;2022-11-15T03:00:20;13.13;;;6.50;;
47960;SDS011;33721;48.852;9.936;2022-11-15T03:05:51;13.05;;;6.07;;
47960;SDS011;33721;48.852;9.936;2022-11-15T03:11:03;10.95;;;5.95;;
47960;SDS011;33721;48.852;9.936;2022-11-15T03:16:18;10.98;;;5.93;;
47960;SDS011;33721;48.852;9.936;2022-11-15T03:18:47;12.23;;;6.15;;
47960;SDS011;33721;48.852;9.936;2022-11-15T03:21:22;12.18;;;5.93;;
47960;SDS011;33721;48.852;9.936;2022-11-15T03:23:49;12.77;;;5.63;;
47960;SDS011;33721;48.852;9.936;2022-11-15T03:26:18;12.63;;;5.47;;
47960;SDS011;33721;48.852;9.936;2022-11-15T03:31:12;10.95;;;5.70;;
47960;SDS011;33721;48.852;9.936;2022-11-15T03:34:00;11.68;;;5.57;;
47960;SDS011;33721;48.852;9.936;2022-11-15T03:36:31;10.48;;;5.85;;
47960;SDS011;33721;48.852;9.936;2022-11-15T03:38:59;13.57;;;6.82;;
47960;SDS011;33721;48.852;9.936;2022-11-15T03:44:42;12.38;;;6.45;;
47960;SDS011;33721;48.852;9.936;2022-11-15T03:47:13;14.30;;;6.78;;
47960;SDS011;33721;48.852;9.936;2022-11-15T03:50:08;12.50;;;6.55;;
47960;SDS011;33721;48.852;9.936;2022-11-15T03:52:38;14.68;;;7.25;;
47960;SDS011;33721;48.852;9.936;2022-11-15T03:55:06;11.77;;;6.45;;
47960;SDS011;33721;48.852;9.936;2022-11-15T03:57:35;15.45;;;7.30;;
47960;SDS011;33721;48.852;9.936;2022-11-15T04:00:01;14.32;;;6.68;;
47960;SDS011;33721;48.852;9.936;2022-11-15T04:02:30;12.10;;;6.78;;
47960;SDS011;33721;48.852;9.936;2022-11-15T04:04:56;13.05;;;6.65;;
47960;SDS011;33721;48.852;9.936;2022-11-15T04:07:22;14.25;;;7.20;;
47960;SDS011;33721;48.852;9.936;2022-11-15T04:09:47;13.23;;;6.25;;
47960;SDS011;33721;48.852;9.936;2022-11-15T04:15:01;10.60;;;5.63;;
47960;SDS011;33721;48.852;9.936;2022-11-15T04:17:42;11.70;;;6.30;;
47960;SDS011;33721;48.852;9.936;2022-11-15T04:23:15;11.65;;;5.95;;
47960;SDS011;33721;48.852;9.936;2022-11-15T04:26:05;14.73;;;6.55;;
47960;SDS011;33721;48.852;9.936;2022-11-15T04:28:33;13.52;;;6.18;;
47960;SDS011;33721;48.852;9.936;2022-11-15T04:30:58;12.23;;;6.32;;
47960;SDS011;33721;48.852;9.936;2022-11-15T04:33:24;12.23;;;6.32;;
47960;SDS011;33721;48.852;9.936;2022-11-15T04:35:50;12.32;;;5.88;;
47960;SDS011;33721;48.852;9.936;2022-11-15T04:38:35;11.05;;;4.97;;
47960;SDS011;33721;48.852;9.936;2022-11-15T04:41:01;11.10;;;5.57;;
47960;SDS011;33721;48.852;9.936;2022-11-15T04:43:28;10.88;;;5.30;;
47960;SDS011;33721;48.852;9.936;2022-11-15T04:45:54;11.13;;;4.70;;
47960;SDS011;33721;48.852;9.936;2022-11-15T04:48:20;8.07;;;3.90;;
47960;SDS011;33721;48.852;9.936;2022-11-15T04:50:47;11.52;;;4.60;;
47960;SDS011;33721;48.852;9.936;2022-11-15T04:53:13;11.70;;;4.63;;
47960;SDS011;33721;48.852;9.936;2022-11-15T04:55:39;9.30;;;4.53;;
47960;SDS011;33721;48.852;9.936;2022-11-15T04:58:04;9.70;;;5.15;;
47960;SDS011;33721;48.852;9.936;2022-11-15T05:00:30;11.02;;;5.05;;
47960;SDS011;33721;48.852;9.936;2022-11-15T05:02:56;12.40;;;5.13;;
47960;SDS011;33721;48.852;9.936;2022-11-15T05:05:41;12.57;;;5.32;;
47960;SDS011;33721;48.852;9.936;2022-11-15T05:08:06;10.68;;;5.05;;
47960;SDS011;33721;48.852;9.936;2022-11-15T05:10:32;11.52;;;5.32;;
47960;SDS011;33721;48.852;9.936;2022-11-15T05:12:58;13.45;;;6.10;;
47960;SDS011;33721;48.852;9.936;2022-11-15T05:15:24;11.77;;;5.60;;
47960;SDS011;33721;48.852;9.936;2022-11-15T05:17:49;13.75;;;5.80;;
47960;SDS011;33721;48.852;9.936;2022-11-15T05:20:15;13.20;;;5.93;;
47960;SDS011;33721;48.852;9.936;2022-11-15T05:22:40;15.68;;;7.53;;
47960;SDS011;33721;48.852;9.936;2022-11-15T05:25:06;15.05;;;7.38;;
47960;SDS011;33721;48.852;9.936;2022-11-15T05:27:33;13.65;;;7.43;;
47960;SDS011;33721;48.852;9.936;2022-11-15T05:29:59;14.50;;;6.88;;
47960;SDS011;33721;48.852;9.936;2022-11-15T05:32:25;18.52;;;6.93;;
47960;SDS011;33721;48.852;9.936;2022-11-15T05:34:51;13.32;;;7.22;;
47960;SDS011;33721;48.852;9.936;2022-11-15T05:37:16;20.50;;;12.38;;
47960;SDS011;33721;48.852;9.936;2022-11-15T05:39:43;14.57;;;7.55;;
47960;SDS011;33721;48.852;9.936;2022-11-15T05:42:09;12.13;;;6.43;;
47960;SDS011;33721;48.852;9.936;2022-11-15T05:44:38;14.20;;;7.30;;
47960;SDS011;33721;48.852;9.936;2022-11-15T05:47:07;14.52;;;7.25;;
47960;SDS011;33721;48.852;9.936;2022-11-15T05:49:36;14.60;;;7.13;;
47960;SDS011;33721;48.852;9.936;2022-11-15T05:52:05;15.45;;;7.25;;
47960;SDS011;33721;48.852;9.936;2022-11-15T05:54:35;12.30;;;6.78;;
47960;SDS011;33721;48.852;9.936;2022-11-15T05:57:01;14.90;;;6.95;;
47960;SDS011;33721;48.852;9.936;2022-11-15T05:59:30;13.30;;;6.82;;
47960;SDS011;33721;48.852;9.936;2022-11-15T06:01:58;10.52;;;5.70;;
47960;SDS011;33721;48.852;9.936;2022-11-15T06:04:24;15.35;;;7.47;;
47960;SDS011;33721;48.852;9.936;2022-11-15T06:06:50;10.65;;;5.78;;
47960;SDS011;33721;48.852;9.936;2022-11-15T06:09:15;10.77;;;5.78;;
47960;SDS011;33721;48.852;9.936;2022-11-15T06:11:41;11.90;;;5.70;;
47960;SDS011;33721;48.852;9.936;2022-11-15T06:14:06;13.35;;;5.78;;
47960;SDS011;33721;48.852;9.936;2022-11-15T06:16:32;10.10;;;5.50;;
47960;SDS011;33721;48.852;9.936;2022-11-15T06:18:58;11.35;;;6.05;;
47960;SDS011;33721;48.852;9.936;2022-11-15T06:21:23;11.73;;;6.28;;
47960;SDS011;33721;48.852;9.936;2022-11-15T06:23:49;15.15;;;7.38;;
47960;SDS011;33721;48.852;9.936;2022-11-15T06:26:14;25.05;;;11.27;;
47960;SDS011;33721;48.852;9.936;2022-11-15T06:28:40;13.35;;;7.35;;
47960;SDS011;33721;48.852;9.936;2022-11-15T06:31:07;20.30;;;10.15;;
47960;SDS011;33721;48.852;9.936;2022-11-15T06:33:34;18.95;;;9.23;;
47960;SDS011;33721;48.852;9.936;2022-11-15T06:36:03;18.00;;;8.77;;
47960;SDS011;33721;48.852;9.936;2022-11-15T06:38:30;18.95;;;9.82;;
47960;SDS011;33721;48.852;9.936;2022-11-15T06:41:03;15.90;;;8.68;;
47960;SDS011;33721;48.852;9.936;2022-11-15T06:43:30;16.23;;;8.48;;
47960;SDS011;33721;48.852;9.936;2022-11-15T06:45:57;17.75;;;8.82;;
47960;SDS011;33721;48.852;9.936;2022-11-15T06:48:24;14.77;;;8.07;;
47960;SDS011;33721;48.852;9.936;2022-11-15T06:50:54;17.75;;;8.63;;
47960;SDS011;33721;48.852;9.936;2022-11-15T06:53:21;22.13;;;8.75;;
47960;SDS011;33721;48.852;9.936;2022-11-15T06:55:47;16.90;;;7.45;;
47960;SDS011;33721;48.852;9.936;2022-11-15T06:58:13;19.58;;;9.00;;
47960;SDS011;33721;48.852;9.936;2022-11-15T07:00:39;16.60;;;8.38;;
47960;SDS011;33721;48.852;9.936;2022-11-15T07:03:05;20.92;;;9.00;;
47960;SDS011;33721;48.852;9.936;2022-11-15T07:05:30;21.80;;;9.50;;
47960;SDS011;33721;48.852;9.936;2022-11-15T07:07:57;20.63;;;9.27;;
47960;SDS011;33721;48.852;9.936;2022-11-15T07:10:23;17.15;;;8.45;;
47960;SDS011;33721;48.852;9.936;2022-11-15T07:12:50;15.05;;;7.88;;
47960;SDS011;33721;48.852;9.936;2022-11-15T07:15:19;16.23;;;7.90;;
47960;SDS011;33721;48.852;9.936;2022-11-15T07:17:47;13.40;;;6.95;;
47960;SDS011;33721;48.852;9.936;2022-11-15T07:20:13;14.43;;;7.00;;
47960;SDS011;33721;48.852;9.936;2022-11-15T07:22:39;15.02;;;7.40;;
47960;SDS011;33721;48.852;9.936;2022-11-15T07:25:05;16.25;;;7.75;;
47960;SDS011;33721;48.852;9.936;2022-11-15T07:27:31;18.42;;;8.32;;
47960;SDS011;33721;48.852;9.936;2022-11-15T07:29:57;23.45;;;10.77;;
47960;SDS011;33721;48.852;9.936;2022-11-15T07:32:23;28.95;;;10.20;;
47960;SDS011;33721;48.852;9.936;2022-11-15T07:34:49;14.85;;;7.03;;
47960;SDS011;33721;48.852;9.936;2022-11-15T07:37:14;14.93;;;6.82;;
47960;SDS011;33721;48.852;9.936;2022-11-15T07:39:41;11.45;;;6.45;;
47960;SDS011;33721;48.852;9.936;2022-11-15T07:42:07;14.63;;;7.07;;
47960;SDS011;33721;48.852;9.936;2022-11-15T07:44:51;14.52;;;7.28;;
47960;SDS011;33721;48.852;9.936;2022-11-15T07:47:17;17.20;;;8.38;;
47960;SDS011;33721;48.852;9.936;2022-11-15T07:49:42;12.27;;;6.90;;
47960;SDS011;33721;48.852;9.936;2022-11-15T07:52:08;11.40;;;5.78;;
47960;SDS011;33721;48.852;9.936;2022-11-15T07:54:34;18.27;;;8.95;;
47960;SDS011;33721;48.852;9.936;2022-11-15T07:56:59;18.05;;;9.40;;
47960;SDS011;33721;48.852;9.936;2022-11-15T07:59:25;20.73;;;9.55;;
47960;SDS011;33721;48.852;9.936;2022-11-15T08:01:50;20.65;;;9.93;;
47960;SDS011;33721;48.852;9.936;2022-11-15T08:04:16;20.77;;;10.10;;
47960;SDS011;33721;48.852;9.936;2022-11-15T08:06:42;18.95;;;9.82;;
47960;SDS011;33721;48.852;9.936;2022-11-15T08:09:07;20.23;;;10.70;;
47960;SDS011;33721;48.852;9.936;2022-11-15T08:11:33;26.75;;;13.55;;
47960;SDS011;33721;48.852;9.936;2022-11-15T08:13:59;27.90;;;14.85;;
47960;SDS011;33721;48.852;9.936;2022-11-15T08:16:24;31.38;;;14.00;;
47960;SDS011;33721;48.852;9.936;2022-11-15T08:18:50;20.58;;;11.35;;
47960;SDS011;33721;48.852;9.936;2022-11-15T08:21:17;24.38;;;12.48;;
47960;SDS011;33721;48.852;9.936;2022-11-15T08:23:44;21.40;;;10.85;;
47960;SDS011;33721;48.852;9.936;2022-11-15T08:26:10;24.42;;;10.85;;
47960;SDS011;33721;48.852;9.936;2022-11-15T08:28:36;21.33;;;9.75;;
47960;SDS011;33721;48.852;9.936;2022-11-15T08:31:02;17.75;;;9.40;;
47960;SDS011;33721;48.852;9.936;2022-11-15T08:33:28;21.88;;;11.65;;
47960;SDS011;33721;48.852;9.936;2022-11-15T08:35:57;20.83;;;10.15;;
47960;SDS011;33721;48.852;9.936;2022-11-15T08:38:26;20.85;;;11.23;;
47960;SDS011;33721;48.852;9.936;2022-11-15T08:40:58;19.65;;;9.40;;
47960;SDS011;33721;48.852;9.936;2022-11-15T08:43:27;18.67;;;9.20;;
47960;SDS011;33721;48.852;9.936;2022-11-15T08:45:55;22.08;;;10.02;;
47960;SDS011;33721;48.852;9.936;2022-11-15T08:48:22;16.25;;;8.40;;
47960;SDS011;33721;48.852;9.936;2022-11-15T08:50:47;17.15;;;8.23;;
47960;SDS011;33721;48.852;9.936;2022-11-15T08:53:13;20.00;;;7.88;;
47960;SDS011;33721;48.852;9.936;2022-11-15T08:55:39;17.45;;;9.48;;
47960;SDS011;33721;48.852;9.936;2022-11-15T08:58:06;14.32;;;7.95;;
47960;SDS011;33721;48.852;9.936;2022-11-15T09:00:32;20.70;;;9.18;;
47960;SDS011;33721;48.852;9.936;2022-11-15T09:02:58;24.13;;;9.55;;
47960;SDS011;33721;48.852;9.936;2022-11-15T09:05:24;22.02;;;9.98;;
47960;SDS011;33721;48.852;9.936;2022-11-15T09:07:54;24.33;;;11.40;;
47960;SDS011;33721;48.852;9.936;2022-11-15T09:10:20;20.95;;;10.05;;
47960;SDS011;33721;48.852;9.936;2022-11-15T09:12:46;21.25;;;9.35;;
47960;SDS011;33721;48.852;9.936;2022-11-15T09:15:13;17.42;;;8.43;;
47960;SDS011;33721;48.852;9.936;2022-11-15T09:17:40;14.50;;;6.97;;
47960;SDS011;33721;48.852;9.936;2022-11-15T09:20:06;21.80;;;8.70;;
47960;SDS011;33721;48.852;9.936;2022-11-15T09:22:32;19.88;;;9.82;;
47960;SDS011;33721;48.852;9.936;2022-11-15T09:24:58;15.73;;;8.20;;
47960;SDS011;33721;48.852;9.936;2022-11-15T09:27:27;15.85;;;7.50;;
47960;SDS011;33721;48.852;9.936;2022-11-15T09:29:53;14.27;;;7.03;;
47960;SDS011;33721;48.852;9.936;2022-11-15T09:32:19;15.93;;;7.35;;
47960;SDS011;33721;48.852;9.936;2022-11-15T09:34:44;16.63;;;7.82;;
47960;SDS011;33721;48.852;9.936;2022-11-15T09:37:10;16.42;;;8.55;;
47960;SDS011;33721;48.852;9.936;2022-11-15T09:39:37;11.90;;;6.68;;
47960;SDS011;33721;48.852;9.936;2022-11-15T09:49:40;11.88;;;6.13;;
47960;SDS011;33721;48.852;9.936;2022-11-15T09:52:06;16.02;;;7.13;;
47960;SDS011;33721;48.852;9.936;2022-11-15T09:54:35;14.75;;;6.90;;
47960;SDS011;33721;48.852;9.936;2022-11-15T09:59:40;11.75;;;6.30;;
47960;SDS011;33721;48.852;9.936;2022-11-15T10:02:26;14.10;;;6.68;;
47960;SDS011;33721;48.852;9.936;2022-11-15T10:05:02;18.80;;;8.95;;
47960;SDS011;33721;48.852;9.936;2022-11-15T10:07:34;19.38;;;8.15;;
47960;SDS011;33721;48.852;9.936;2022-11-15T10:15:17;16.70;;;7.72;;
47960;SDS011;33721;48.852;9.936;2022-11-15T10:20:50;25.38;;;9.07;;
47960;SDS011;33721;48.852;9.936;2022-11-15T10:23:33;12.75;;;5.65;;
47960;SDS011;33721;48.852;9.936;2022-11-15T10:25:59;10.85;;;5.03;;
47960;SDS011;33721;48.852;9.936;2022-11-15T10:28:27;10.57;;;5.30;;
47960;SDS011;33721;48.852;9.936;2022-11-15T10:30:55;12.73;;;5.32;;
47960;SDS011;33721;48.852;9.936;2022-11-15T10:33:36;10.45;;;4.80;;
47960;SDS011;33721;48.852;9.936;2022-11-15T10:39:11;10.52;;;4.93;;
47960;SDS011;33721;48.852;9.936;2022-11-15T10:41:35;10.05;;;5.20;;
47960;SDS011;33721;48.852;9.936;2022-11-15T10:46:31;11.55;;;5.65;;
47960;SDS011;33721;48.852;9.936;2022-11-15T10:49:52;7.82;;;4.03;;
47960;SDS011;33721;48.852;9.936;2022-11-15T10:51:52;8.27;;;4.20;;
47960;SDS011;33721;48.852;9.936;2022-11-15T10:57:19;10.32;;;3.78;;
47960;SDS011;33721;48.852;9.936;2022-11-15T11:00:00;7.50;;;3.42;;
47960;SDS011;33721;48.852;9.936;2022-11-15T11:02:33;7.85;;;3.92;;
47960;SDS011;33721;48.852;9.936;2022-11-15T11:05:06;5.32;;;3.00;;
47960;SDS011;33721;48.852;9.936;2022-11-15T11:07:55;7.55;;;3.00;;
47960;SDS011;33721;48.852;9.936;2022-11-15T11:10:26;11.52;;;3.38;;
47960;SDS011;33721;48.852;9.936;2022-11-15T11:12:52;7.93;;;4.57;;
47960;SDS011;33721;48.852;9.936;2022-11-15T11:15:18;9.25;;;4.10;;
47960;SDS011;33721;48.852;9.936;2022-11-15T11:20:30;9.00;;;4.13;;
47960;SDS011;33721;48.852;9.936;2022-11-15T11:28:44;5.18;;;3.15;;
47960;SDS011;33721;48.852;9.936;2022-11-15T11:36:49;5.75;;;2.90;;
47960;SDS011;33721;48.852;9.936;2022-11-15T11:39:37;6.05;;;3.22;;
47960;SDS011;33721;48.852;9.936;2022-11-15T11:46:00;6.80;;;2.90;;
47960;SDS011;33721;48.852;9.936;2022-11-15T11:48:48;11.23;;;3.65;;
47960;SDS011;33721;48.852;9.936;2022-11-15T11:51:23;5.57;;;3.30;;
47960;SDS011;33721;48.852;9.936;2022-11-15T11:56:39;6.30;;;3.38;;
47960;SDS011;33721;48.852;9.936;2022-11-15T11:59:09;6.57;;;2.20;;
47960;SDS011;33721;48.852;9.936;2022-11-15T12:01:37;6.03;;;2.25;;
47960;SDS011;33721;48.852;9.936;2022-11-15T12:04:19;4.18;;;1.70;;
47960;SDS011;33721;48.852;9.936;2022-11-15T12:06:54;4.38;;;2.30;;
47960;SDS011;33721;48.852;9.936;2022-11-15T12:17:39;5.50;;;2.97;;
47960;SDS011;33721;48.852;9.936;2022-11-15T12:20:20;5.45;;;3.20;;
47960;SDS011;33721;48.852;9.936;2022-11-15T12:22:58;9.18;;;3.45;;
47960;SDS011;33721;48.852;9.936;2022-11-15T12:29:12;5.20;;;2.53;;
47960;SDS011;33721;48.852;9.936;2022-11-15T12:31:49;4.85;;;3.03;;
47960;SDS011;33721;48.852;9.936;2022-11-15T12:36:46;5.57;;;3.17;;
47960;SDS011;33721;48.852;9.936;2022-11-15T12:39:14;4.68;;;2.50;;
47960;SDS011;33721;48.852;9.936;2022-11-15T12:41:41;4.95;;;2.53;;
47960;SDS011;33721;48.852;9.936;2022-11-15T12:44:13;6.45;;;3.05;;
47960;SDS011;33721;48.852;9.936;2022-11-15T13:13:00;5.47;;;3.28;;
47960;SDS011;33721;48.852;9.936;2022-11-15T13:15:33;5.57;;;2.85;;
47960;SDS011;33721;48.852;9.936;2022-11-15T13:17:58;7.40;;;3.33;;
47960;SDS011;33721;48.852;9.936;2022-11-15T13:20:51;6.07;;;2.97;;
47960;SDS011;33721;48.852;9.936;2022-11-15T13:23:17;8.75;;;3.65;;
47960;SDS011;33721;48.852;9.936;2022-11-15T13:25:48;6.53;;;2.63;;
47960;SDS011;33721;48.852;9.936;2022-11-15T13:28:21;9.35;;;3.30;;
47960;SDS011;33721;48.852;9.936;2022-11-15T13:31:22;6.75;;;2.83;;
47960;SDS011;33721;48.852;9.936;2022-11-15T13:33:51;7.53;;;2.92;;
47960;SDS011;33721;48.852;9.936;2022-11-15T13:36:22;6.72;;;3.20;;
47960;SDS011;33721;48.852;9.936;2022-11-15T13:39:04;5.60;;;3.10;;
47960;SDS011;33721;48.852;9.936;2022-11-15T13:41:44;10.40;;;3.38;;
47960;SDS011;33721;48.852;9.936;2022-11-15T13:44:19;6.78;;;3.33;;
47960;SDS011;33721;48.852;9.936;2022-11-15T13:47:00;5.50;;;3.40;;
47960;SDS011;33721;48.852;9.936;2022-11-15T13:49:31;7.03;;;3.45;;
47960;SDS011;33721;48.852;9.936;2022-11-15T13:51:58;7.32;;;3.33;;
47960;SDS011;33721;48.852;9.936;2022-11-15T13:57:02;7.85;;;3.53;;
47960;SDS011;33721;48.852;9.936;2022-11-15T13:59:34;7.00;;;3.25;;
47960;SDS011;33721;48.852;9.936;2022-11-15T14:02:12;6.30;;;3.20;;
47960;SDS011;33721;48.852;9.936;2022-11-15T14:07:34;7.68;;;4.00;;
47960;SDS011;33721;48.852;9.936;2022-11-15T14:10:16;9.50;;;4.70;;
47960;SDS011;33721;48.852;9.936;2022-11-15T14:12:51;8.48;;;4.00;;
47960;SDS011;33721;48.852;9.936;2022-11-15T14:15:38;8.15;;;4.22;;
47960;SDS011;33721;48.852;9.936;2022-11-15T14:18:04;7.60;;;3.97;;
47960;SDS011;33721;48.852;9.936;2022-11-15T14:22:59;5.97;;;3.38;;
47960;SDS011;33721;48.852;9.936;2022-11-15T14:25:29;6.55;;;3.85;;
47960;SDS011;33721;48.852;9.936;2022-11-15T14:30:40;10.30;;;4.90;;
47960;SDS011;33721;48.852;9.936;2022-11-15T14:35:56;10.43;;;5.22;;
47960;SDS011;33721;48.852;9.936;2022-11-15T14:38:24;9.07;;;5.47;;
47960;SDS011;33721;48.852;9.936;2022-11-15T14:40:50;16.42;;;5.80;;
47960;SDS011;33721;48.852;9.936;2022-11-15T14:43:16;10.95;;;5.32;;
47960;SDS011;33721;48.852;9.936;2022-11-15T14:45:42;11.00;;;5.25;;
47960;SDS011;33721;48.852;9.936;2022-11-15T14:48:08;13.23;;;5.03;;
47960;SDS011;33721;48.852;9.936;2022-11-15T14:50:34;10.75;;;4.35;;
47960;SDS011;33721;48.852;9.936;2022-11-15T14:53:01;8.32;;;4.13;;
47960;SDS011;33721;48.852;9.936;2022-11-15T14:55:28;11.55;;;4.72;;
47960;SDS011;33721;48.852;9.936;2022-11-15T14:57:57;12.10;;;6.10;;
47960;SDS011;33721;48.852;9.936;2022-11-15T15:00:28;11.13;;;5.70;;
47960;SDS011;33721;48.852;9.936;2022-11-15T15:02:57;10.88;;;5.00;;
47960;SDS011;33721;48.852;9.936;2022-11-15T15:05:29;12.55;;;5.57;;
47960;SDS011;33721;48.852;9.936;2022-11-15T15:08:14;8.32;;;4.57;;
47960;SDS011;33721;48.852;9.936;2022-11-15T15:10:43;8.60;;;4.00;;
47960;SDS011;33721;48.852;9.936;2022-11-15T15:13:20;8.35;;;4.25;;
47960;SDS011;33721;48.852;9.936;2022-11-15T15:15:48;8.90;;;4.65;;
47960;SDS011;33721;48.852;9.936;2022-11-15T15:18:15;9.63;;;4.80;;
47960;SDS011;33721;48.852;9.936;2022-11-15T15:20:42;9.80;;;5.22;;
47960;SDS011;33721;48.852;9.936;2022-11-15T15:23:14;16.50;;;7.43;;
47960;SDS011;33721;48.852;9.936;2022-11-15T15:25:42;11.27;;;5.00;;
47960;SDS011;33721;48.852;9.936;2022-11-15T15:28:08;7.32;;;3.38;;
47960;SDS011;33721;48.852;9.936;2022-11-15T15:30:34;7.97;;;3.42;;
47960;SDS011;33721;48.852;9.936;2022-11-15T15:32:59;7.35;;;3.35;;
47960;SDS011;33721;48.852;9.936;2022-11-15T15:35:27;9.52;;;3.35;;
47960;SDS011;33721;48.852;9.936;2022-11-15T15:37:56;5.13;;;3.47;;
47960;SDS011;33721;48.852;9.936;2022-11-15T15:40:23;5.72;;;3.03;;
47960;SDS011;33721;48.852;9.936;2022-11-15T15:42:49;5.78;;;3.22;;
47960;SDS011;33721;48.852;9.936;2022-11-15T15:45:15;8.13;;;3.90;;
47960;SDS011;33721;48.852;9.936;2022-11-15T15:47:42;5.55;;;3.20;;
47960;SDS011;33721;48.852;9.936;2022-11-15T15:50:16;5.55;;;3.60;;
47960;SDS011;33721;48.852;9.936;2022-11-15T15:52:42;12.35;;;6.05;;
47960;SDS011;33721;48.852;9.936;2022-11-15T15:55:08;12.70;;;5.50;;
47960;SDS011;33721;48.852;9.936;2022-11-15T15:57:35;9.32;;;5.03;;
47960;SDS011;33721;48.852;9.936;2022-11-15T16:00:01;11.77;;;4.60;;
47960;SDS011;33721;48.852;9.936;2022-11-15T16:02:27;8.90;;;4.50;;
47960;SDS011;33721;48.852;9.936;2022-11-15T16:04:53;7.55;;;4.68;;
47960;SDS011;33721;48.852;9.936;2022-11-15T16:07:20;8.93;;;5.18;;
47960;SDS011;33721;48.852;9.936;2022-11-15T16:09:49;12.27;;;5.57;;
47960;SDS011;33721;48.852;9.936;2022-11-15T16:12:28;8.38;;;5.22;;
47960;SDS011;33721;48.852;9.936;2022-11-15T16:14:54;9.73;;;5.68;;
47960;SDS011;33721;48.852;9.936;2022-11-15T16:17:20;12.60;;;6.60;;
47960;SDS011;33721;48.852;9.936;2022-11-15T16:19:48;13.35;;;6.53;;
47960;SDS011;33721;48.852;9.936;2022-11-15T16:22:13;13.45;;;7.05;;
47960;SDS011;33721;48.852;9.936;2022-11-15T16:24:39;16.20;;;8.48;;
47960;SDS011;33721;48.852;9.936;2022-11-15T16:27:05;18.40;;;10.45;;
47960;SDS011;33721;48.852;9.936;2022-11-15T16:29:30;17.88;;;9.98;;
47960;SDS011;33721;48.852;9.936;2022-11-15T16:31:56;19.80;;;10.68;;
47960;SDS011;33721;48.852;9.936;2022-11-15T16:34:22;14.27;;;8.15;;
47960;SDS011;33721;48.852;9.936;2022-11-15T16:36:47;17.38;;;8.82;;
47960;SDS011;33721;48.852;9.936;2022-11-15T16:39:13;14.35;;;8.10;;
47960;SDS011;33721;48.852;9.936;2022-11-15T16:41:42;16.25;;;8.27;;
47960;SDS011;33721;48.852;9.936;2022-11-15T16:44:11;15.20;;;8.32;;
47960;SDS011;33721;48.852;9.936;2022-11-15T16:46:37;17.95;;;8.27;;
47960;SDS011;33721;48.852;9.936;2022-11-15T16:49:12;19.20;;;7.75;;
47960;SDS011;33721;48.852;9.936;2022-11-15T16:51:39;14.88;;;8.35;;
47960;SDS011;33721;48.852;9.936;2022-11-15T16:54:06;19.20;;;9.38;;
47960;SDS011;33721;48.852;9.936;2022-11-15T16:56:32;16.98;;;8.95;;
47960;SDS011;33721;48.852;9.936;2022-11-15T16:58:59;19.35;;;10.27;;
47960;SDS011;33721;48.852;9.936;2022-11-15T17:01:26;26.90;;;12.50;;
47960;SDS011;33721;48.852;9.936;2022-11-15T17:03:53;16.05;;;8.48;;
47960;SDS011;33721;48.852;9.936;2022-11-15T17:06:20;19.40;;;9.75;;
47960;SDS011;33721;48.852;9.936;2022-11-15T17:08:48;17.65;;;9.27;;
47960;SDS011;33721;48.852;9.936;2022-11-15T17:11:15;16.77;;;8.38;;
47960;SDS011;33721;48.852;9.936;2022-11-15T17:13:43;20.40;;;9.27;;